Time;durP1;ratioP1;P1;durP2;ratioP2;P2;SDS_P1;SDS_P2;PMS_P1;PMS_P2;Temp;Humidity;BMP_temperature;BMP_pressure;BME280_temperature;BME280_humidity;BME280_pressure;Samples;Min_cycle;Max_cycle;Signal;HPM_P1;HPM_P2
2022/10/23 00:00:52;;;;;;;0.00;0.00;;;;;;;;;;1745605;28;20601;-71
2022/10/23 00:01:45;;;;;;;0.00;0.00;;;;;;;;;;1740479;28;20211;-71
2022/10/23 00:02:36;;;;;;;0.00;0.00;;;;;;;;;;1739596;28;20269;-71
2022/10/23 00:03:28;;;;;;;0.00;0.00;;;;;;;;;;1740574;28;20194;-71
2022/10/23 00:04:20;;;;;;;0.00;0.00;;;;;;;;;;1739771;28;20289;-71
2022/10/23 00:05:12;;;;;;;0.00;0.00;;;;;;;;;;1740856;28;20218;-71
2022/10/23 00:06:03;;;;;;;0.00;0.00;;;;;;;;;;1739863;28;20246;-71
2022/10/23 00:06:55;;;;;;;0.00;0.00;;;;;;;;;;1739852;28;20249;-71
2022/10/23 00:07:49;;;;;;;0.00;0.00;;;;;;;;;;1740112;28;20252;-71
2022/10/23 00:08:40;;;;;;;0.00;0.00;;;;;;;;;;1740281;28;20199;-71
2022/10/23 00:09:32;;;;;;;0.00;0.00;;;;;;;;;;1739988;28;20202;-71
2022/10/23 00:10:24;;;;;;;0.00;0.00;;;;;;;;;;1740350;28;20253;-71
2022/10/23 00:11:16;;;;;;;0.00;0.00;;;;;;;;;;1746596;28;20218;-71
2022/10/23 00:12:08;;;;;;;0.00;0.00;;;;;;;;;;1740822;28;20281;-71
2022/10/23 00:12:59;;;;;;;0.00;0.00;;;;;;;;;;1740017;28;20238;-71
2022/10/23 00:13:51;;;;;;;0.00;0.00;;;;;;;;;;1739959;28;20277;-71
2022/10/23 00:14:42;;;;;;;0.00;0.00;;;;;;;;;;1740148;28;20506;-71
2022/10/23 00:15:35;;;;;;;0.00;0.00;;;;;;;;;;1740383;28;20206;-71
2022/10/23 00:16:28;;;;;;;0.00;0.00;;;;;;;;;;1740425;28;20613;-71
2022/10/23 00:17:20;;;;;;;0.00;0.00;;;;;;;;;;1739606;28;20625;-72
2022/10/23 00:18:11;;;;;;;0.00;0.00;;;;;;;;;;1740302;28;20294;-71
2022/10/23 00:19:03;;;;;;;0.00;0.00;;;;;;;;;;1739808;28;20213;-71
2022/10/23 00:19:54;;;;;;;0.00;0.00;;;;;;;;;;1740389;28;20340;-71
2022/10/23 00:20:46;;;;;;;0.00;0.00;;;;;;;;;;1739938;28;20195;-71
2022/10/23 00:21:38;;;;;;;0.00;0.00;;;;;;;;;;1734757;28;20259;-72
2022/10/23 00:22:30;;;;;;;0.00;0.00;;;;;;;;;;1737329;28;20234;-72
2022/10/23 00:23:21;;;;;;;0.00;0.00;;;;;;;;;;1745909;28;20359;-72
2022/10/23 00:24:13;;;;;;;0.00;0.00;;;;;;;;;;1745226;28;20226;-72
2022/10/23 00:25:05;;;;;;;0.00;0.00;;;;;;;;;;1740925;28;20608;-72
2022/10/23 00:25:57;;;;;;;0.00;0.00;;;;;;;;;;1740138;28;20261;-72
2022/10/23 00:26:49;;;;;;;0.00;0.00;;;;;;;;;;1733794;28;20195;-72
2022/10/23 00:27:41;;;;;;;0.00;0.00;;;;;;;;;;1743198;28;20225;-72
2022/10/23 00:28:32;;;;;;;0.00;0.00;;;;;;;;;;1747119;28;20293;-72
2022/10/23 00:29:24;;;;;;;0.00;0.00;;;;;;;;;;1740202;28;20281;-72
2022/10/23 00:30:15;;;;;;;0.00;0.00;;;;;;;;;;1740746;28;20373;-72
2022/10/23 00:31:07;;;;;;;0.00;0.00;;;;;;;;;;1739521;28;20222;-71
2022/10/23 00:32:00;;;;;;;0.00;0.00;;;;;;;;;;1739993;28;20297;-71
2022/10/23 00:32:52;;;;;;;0.00;0.00;;;;;;;;;;1741719;28;20619;-71
2022/10/23 00:33:43;;;;;;;0.00;0.00;;;;;;;;;;1745668;28;20237;-71
2022/10/23 00:34:35;;;;;;;0.00;0.00;;;;;;;;;;1742608;28;20215;-71
2022/10/23 00:35:26;;;;;;;0.00;0.00;;;;;;;;;;1745766;28;20229;-71
2022/10/23 00:36:19;;;;;;;0.00;0.00;;;;;;;;;;1742824;28;20549;-71
2022/10/23 00:37:10;;;;;;;0.00;0.00;;;;;;;;;;1744757;28;20257;-71
2022/10/23 00:38:02;;;;;;;0.00;0.00;;;;;;;;;;1740211;28;20230;-71
2022/10/23 00:38:53;;;;;;;0.00;0.00;;;;;;;;;;1739923;28;20257;-71
2022/10/23 00:39:46;;;;;;;0.00;0.00;;;;;;;;;;1739635;28;20260;-71
2022/10/23 00:40:37;;;;;;;0.00;0.00;;;;;;;;;;1740177;28;20298;-71
2022/10/23 00:41:31;;;;;;;0.00;0.00;;;;;;;;;;1740034;28;20210;-72
2022/10/23 00:42:22;;;;;;;0.00;0.00;;;;;;;;;;1739759;28;20687;-72
2022/10/23 00:43:18;;;;;;;0.00;0.00;;;;;;;;;;1740173;28;20207;-72
2022/10/23 00:44:10;;;;;;;0.00;0.00;;;;;;;;;;1739916;28;20620;-72
2022/10/23 00:45:19;;;;;;;0.00;0.00;;;;;;;;;;1740101;28;20205;-72
2022/10/23 00:46:10;;;;;;;0.00;0.00;;;;;;;;;;1740056;28;20207;-71
2022/10/23 00:47:03;;;;;;;0.00;0.00;;;;;;;;;;1740166;28;20203;-71
2022/10/23 00:47:55;;;;;;;0.00;0.00;;;;;;;;;;1739953;28;20238;-71
2022/10/23 00:48:47;;;;;;;0.00;0.00;;;;;;;;;;1739884;28;20207;-71
2022/10/23 00:49:38;;;;;;;0.00;0.00;;;;;;;;;;1742762;28;20241;-71
2022/10/23 00:50:31;;;;;;;0.00;0.00;;;;;;;;;;1745039;28;20210;-71
2022/10/23 00:51:23;;;;;;;0.00;0.00;;;;;;;;;;1736741;28;20245;-72
2022/10/23 00:52:15;;;;;;;0.00;0.00;;;;;;;;;;1739775;28;20221;-72
2022/10/23 00:53:06;;;;;;;0.00;0.00;;;;;;;;;;1747012;28;20245;-72
2022/10/23 00:54:00;;;;;;;0.00;0.00;;;;;;;;;;1743625;28;20198;-72
2022/10/23 00:54:51;;;;;;;0.00;0.00;;;;;;;;;;1740257;28;20274;-72
2022/10/23 00:55:45;;;;;;;0.00;0.00;;;;;;;;;;1739783;28;20214;-72
2022/10/23 00:56:38;;;;;;;0.00;0.00;;;;;;;;;;1740093;28;20202;-71
2022/10/23 00:57:30;;;;;;;0.00;0.00;;;;;;;;;;1740002;28;20262;-71
2022/10/23 00:58:21;;;;;;;0.00;0.00;;;;;;;;;;1739976;28;20652;-71
2022/10/23 00:59:13;;;;;;;0.00;0.00;;;;;;;;;;1739775;28;20629;-71
2022/10/23 01:00:05;;;;;;;0.00;0.00;;;;;;;;;;1740322;28;20648;-71
2022/10/23 01:00:57;;;;;;;0.00;0.00;;;;;;;;;;1739523;28;20241;-71
2022/10/23 01:01:48;;;;;;;0.00;0.00;;;;;;;;;;1733195;28;20231;-71
2022/10/23 01:02:41;;;;;;;0.00;0.00;;;;;;;;;;1738282;28;20198;-71
2022/10/23 01:03:32;;;;;;;0.00;0.00;;;;;;;;;;1740364;28;20272;-71
2022/10/23 01:04:24;;;;;;;0.00;0.00;;;;;;;;;;1740315;28;20321;-71
2022/10/23 01:05:16;;;;;;;0.00;0.00;;;;;;;;;;1747509;28;20268;-71
2022/10/23 01:06:11;;;;;;;0.00;0.00;;;;;;;;;;1739295;28;20207;-71
2022/10/23 01:07:05;;;;;;;0.00;0.00;;;;;;;;;;1739923;28;20602;-71
2022/10/23 01:08:02;;;;;;;0.00;0.00;;;;;;;;;;1739398;28;20202;-71
2022/10/23 01:08:55;;;;;;;0.00;0.00;;;;;;;;;;1739508;28;20269;-71
2022/10/23 01:09:52;;;;;;;0.00;0.00;;;;;;;;;;1740001;28;20234;-71
2022/10/23 01:10:44;;;;;;;0.00;0.00;;;;;;;;;;1739794;28;20238;-71
2022/10/23 01:11:39;;;;;;;0.00;0.00;;;;;;;;;;1739641;28;20237;-72
2022/10/23 01:12:34;;;;;;;0.00;0.00;;;;;;;;;;1740511;28;20237;-72
2022/10/23 01:13:31;;;;;;;0.00;0.00;;;;;;;;;;1746705;28;20252;-72
2022/10/23 01:14:25;;;;;;;0.00;0.00;;;;;;;;;;1740615;28;20664;-72
2022/10/23 01:15:19;;;;;;;0.00;0.00;;;;;;;;;;1740337;28;20210;-72
2022/10/23 01:16:13;;;;;;;0.00;0.00;;;;;;;;;;1739852;28;20251;-72
2022/10/23 01:17:10;;;;;;;0.00;0.00;;;;;;;;;;1739317;28;20264;-72
2022/10/23 01:18:05;;;;;;;0.00;0.00;;;;;;;;;;1740172;28;20223;-72
2022/10/23 01:19:00;;;;;;;0.00;0.00;;;;;;;;;;1739683;28;20610;-72
2022/10/23 01:20:03;;;;;;;0.00;0.00;;;;;;;;;;1740190;28;20748;-72
2022/10/23 01:20:59;;;;;;;0.03;0.03;;;;;;;;;;1739548;28;20555;-71
2022/10/23 01:21:54;;;;;;;0.00;0.00;;;;;;;;;;1740118;28;20510;-71
2022/10/23 01:23:00;;;;;;;0.00;0.00;;;;;;;;;;1739429;28;20187;-71
2022/10/23 01:24:10;;;;;;;0.00;0.00;;;;;;;;;;1739761;28;20643;-71
2022/10/23 01:25:10;;;;;;;0.00;0.00;;;;;;;;;;1740047;28;20247;-71
2022/10/23 01:26:15;;;;;;;0.00;0.00;;;;;;;;;;1739704;28;20187;-72
2022/10/23 01:27:19;;;;;;;0.00;0.00;;;;;;;;;;1739697;28;20514;-72
2022/10/23 01:28:13;;;;;;;0.00;0.00;;;;;;;;;;1737535;28;20250;-72
2022/10/23 01:29:08;;;;;;;0.00;0.00;;;;;;;;;;1739246;28;20413;-72
2022/10/23 01:30:04;;;;;;;0.00;0.00;;;;;;;;;;1740073;28;20227;-72
2022/10/23 01:30:57;;;;;;;0.00;0.00;;;;;;;;;;1739514;28;20191;-71
2022/10/23 01:31:50;;;;;;;0.00;0.00;;;;;;;;;;1746585;28;20218;-71
2022/10/23 01:32:44;;;;;;;0.00;0.00;;;;;;;;;;1740675;28;20241;-71
2022/10/23 01:33:39;;;;;;;0.00;0.00;;;;;;;;;;1739765;28;20293;-71
2022/10/23 01:34:32;;;;;;;0.00;0.00;;;;;;;;;;1739905;28;20315;-71
2022/10/23 01:35:26;;;;;;;0.00;0.00;;;;;;;;;;1740016;28;20265;-71
2022/10/23 01:36:18;;;;;;;0.00;0.00;;;;;;;;;;1740068;28;20234;-72
2022/10/23 01:37:12;;;;;;;0.00;0.00;;;;;;;;;;1739616;28;20645;-72
2022/10/23 01:38:05;;;;;;;0.00;0.00;;;;;;;;;;1736733;28;20315;-72
2022/10/23 01:38:59;;;;;;;0.00;0.00;;;;;;;;;;1739475;28;20281;-72
2022/10/23 01:39:52;;;;;;;0.00;0.00;;;;;;;;;;1744475;28;20213;-72
2022/10/23 01:40:47;;;;;;;0.00;0.00;;;;;;;;;;1743674;28;20205;-72
2022/10/23 01:41:41;;;;;;;0.00;0.00;;;;;;;;;;1739862;28;20238;-71
2022/10/23 01:42:41;;;;;;;0.00;0.00;;;;;;;;;;1742503;28;20226;-71
2022/10/23 01:43:38;;;;;;;0.00;0.00;;;;;;;;;;1746850;28;20298;-71
2022/10/23 01:44:33;;;;;;;0.00;0.00;;;;;;;;;;1739564;28;20199;-71
2022/10/23 01:45:28;;;;;;;0.00;0.00;;;;;;;;;;1740483;28;20456;-71
2022/10/23 01:46:20;;;;;;;0.00;0.00;;;;;;;;;;1740032;28;20561;-71
2022/10/23 01:47:12;;;;;;;0.00;0.00;;;;;;;;;;1739807;28;20234;-71
2022/10/23 01:48:06;;;;;;;0.00;0.00;;;;;;;;;;1736569;28;20227;-71
2022/10/23 01:48:58;;;;;;;0.00;0.00;;;;;;;;;;1739596;28;20199;-71
2022/10/23 01:49:52;;;;;;;0.00;0.00;;;;;;;;;;1739546;28;20529;-71
2022/10/23 01:50:44;;;;;;;0.00;0.00;;;;;;;;;;1741653;28;20242;-71
2022/10/23 01:51:37;;;;;;;0.00;0.00;;;;;;;;;;1746651;28;20198;-72
2022/10/23 01:52:28;;;;;;;0.00;0.00;;;;;;;;;;1742078;28;20257;-72
2022/10/23 01:53:20;;;;;;;0.00;0.00;;;;;;;;;;1740092;28;20225;-72
2022/10/23 01:54:13;;;;;;;0.00;0.00;;;;;;;;;;1739510;28;20312;-72
2022/10/23 01:55:06;;;;;;;0.00;0.00;;;;;;;;;;1740175;28;20209;-72
2022/10/23 01:55:57;;;;;;;0.00;0.00;;;;;;;;;;1739375;28;20660;-72
2022/10/23 01:56:51;;;;;;;0.00;0.00;;;;;;;;;;1740010;28;20234;-72
2022/10/23 01:57:45;;;;;;;0.00;0.00;;;;;;;;;;1734742;28;20267;-72
2022/10/23 01:58:38;;;;;;;0.00;0.00;;;;;;;;;;1733144;28;20669;-72
2022/10/23 01:59:30;;;;;;;0.00;0.00;;;;;;;;;;1733867;28;20544;-72
2022/10/23 02:00:22;;;;;;;0.00;0.00;;;;;;;;;;1732800;28;20207;-72
2022/10/23 02:01:15;;;;;;;0.00;0.00;;;;;;;;;;1734015;28;20587;-72
2022/10/23 02:02:07;;;;;;;0.00;0.00;;;;;;;;;;1732703;28;20207;-72
2022/10/23 02:02:58;;;;;;;0.00;0.00;;;;;;;;;;1733558;28;20295;-72
2022/10/23 02:03:50;;;;;;;0.00;0.00;;;;;;;;;;1733566;28;20283;-72
2022/10/23 02:04:45;;;;;;;0.00;0.00;;;;;;;;;;1739675;28;20239;-72
2022/10/23 02:05:38;;;;;;;0.00;0.00;;;;;;;;;;1737710;28;20199;-72
2022/10/23 02:06:29;;;;;;;0.00;0.00;;;;;;;;;;1739614;28;20918;-71
2022/10/23 02:07:20;;;;;;;0.00;0.00;;;;;;;;;;1736363;28;20207;-71
2022/10/23 02:08:12;;;;;;;0.00;0.00;;;;;;;;;;1737398;28;20421;-71
2022/10/23 02:09:03;;;;;;;0.00;0.00;;;;;;;;;;1735621;28;20638;-71
2022/10/23 02:09:54;;;;;;;0.00;0.00;;;;;;;;;;1734179;28;20196;-71
2022/10/23 02:10:50;;;;;;;0.00;0.00;;;;;;;;;;1735908;28;20314;-71
2022/10/23 02:11:46;;;;;;;0.00;0.00;;;;;;;;;;1738637;28;20230;-72
2022/10/23 02:12:42;;;;;;;0.00;0.00;;;;;;;;;;1734934;28;20625;-72
2022/10/23 02:13:38;;;;;;;0.00;0.00;;;;;;;;;;1734448;28;20226;-72
2022/10/23 02:14:35;;;;;;;0.00;0.00;;;;;;;;;;1737502;28;20643;-72
2022/10/23 02:15:28;;;;;;;0.00;0.00;;;;;;;;;;1734754;28;20283;-72
2022/10/23 02:16:23;;;;;;;0.08;0.08;;;;;;;;;;1734223;28;20619;-72
2022/10/23 02:17:18;;;;;;;0.00;0.00;;;;;;;;;;1733667;28;20658;-72
2022/10/23 02:18:16;;;;;;;0.00;0.00;;;;;;;;;;1734319;28;20208;-72
2022/10/23 02:19:11;;;;;;;0.00;0.00;;;;;;;;;;1735774;28;20204;-72
2022/10/23 02:20:13;;;;;;;0.00;0.00;;;;;;;;;;1741445;28;20185;-72
2022/10/23 02:21:07;;;;;;;0.00;0.00;;;;;;;;;;1735491;28;20313;-71
2022/10/23 02:22:04;;;;;;;0.00;0.00;;;;;;;;;;1732453;28;20207;-71
2022/10/23 02:22:58;;;;;;;0.00;0.00;;;;;;;;;;1726761;28;20228;-71
2022/10/23 02:23:52;;;;;;;0.00;0.00;;;;;;;;;;1734708;28;20207;-71
2022/10/23 02:24:45;;;;;;;0.00;0.00;;;;;;;;;;1730786;28;20626;-71
2022/10/23 02:25:40;;;;;;;0.00;0.00;;;;;;;;;;1734519;28;20641;-71
2022/10/23 02:26:34;;;;;;;0.00;0.00;;;;;;;;;;1736857;28;20212;-71
2022/10/23 02:27:27;;;;;;;0.00;0.00;;;;;;;;;;1734311;28;20877;-71
2022/10/23 02:28:22;;;;;;;0.00;0.00;;;;;;;;;;1734139;28;20239;-71
2022/10/23 02:29:17;;;;;;;0.00;0.00;;;;;;;;;;1736309;28;20211;-71
2022/10/23 02:30:10;;;;;;;0.00;0.00;;;;;;;;;;1741580;28;20286;-71
2022/10/23 02:31:03;;;;;;;0.00;0.00;;;;;;;;;;1735874;28;20270;-72
2022/10/23 02:31:54;;;;;;;0.00;0.00;;;;;;;;;;1733900;28;20246;-72
2022/10/23 02:32:48;;;;;;;0.00;0.00;;;;;;;;;;1738203;28;20294;-72
2022/10/23 02:33:39;;;;;;;0.00;0.00;;;;;;;;;;1740918;28;20245;-72
2022/10/23 02:34:31;;;;;;;0.00;0.00;;;;;;;;;;1739007;28;20199;-72
2022/10/23 02:35:24;;;;;;;0.00;0.00;;;;;;;;;;1741001;28;20231;-72
2022/10/23 02:36:16;;;;;;;0.00;0.00;;;;;;;;;;1738784;28;20290;-72
2022/10/23 02:37:07;;;;;;;0.10;0.10;;;;;;;;;;1739549;28;20238;-72
2022/10/23 02:38:00;;;;;;;0.00;0.00;;;;;;;;;;1733832;28;20670;-72
2022/10/23 02:38:51;;;;;;;0.00;0.00;;;;;;;;;;1735071;28;20266;-72
2022/10/23 02:39:43;;;;;;;0.00;0.00;;;;;;;;;;1740739;28;20236;-72
2022/10/23 02:40:37;;;;;;;0.00;0.00;;;;;;;;;;1740545;28;20294;-72
2022/10/23 02:41:36;;;;;;;0.00;0.00;;;;;;;;;;1740697;28;20238;-72
2022/10/23 02:42:29;;;;;;;0.00;0.00;;;;;;;;;;1738989;28;20192;-72
2022/10/23 02:43:24;;;;;;;0.00;0.00;;;;;;;;;;1740668;28;20536;-72
2022/10/23 02:44:23;;;;;;;0.00;0.00;;;;;;;;;;1735760;28;20239;-72
2022/10/23 02:45:18;;;;;;;0.00;0.00;;;;;;;;;;1734550;28;20294;-72
2022/10/23 02:46:13;;;;;;;0.00;0.00;;;;;;;;;;1739855;28;20290;-71
2022/10/23 02:47:10;;;;;;;0.00;0.00;;;;;;;;;;1740271;28;20668;-71
2022/10/23 02:48:05;;;;;;;0.00;0.00;;;;;;;;;;1740688;28;20235;-71
2022/10/23 02:49:00;;;;;;;0.00;0.00;;;;;;;;;;1738124;28;20230;-71
2022/10/23 02:49:53;;;;;;;0.00;0.00;;;;;;;;;;1738318;28;20223;-71
2022/10/23 02:50:50;;;;;;;0.00;0.00;;;;;;;;;;1737986;28;20198;-71
2022/10/23 02:51:50;;;;;;;0.00;0.00;;;;;;;;;;1733916;28;20196;-71
2022/10/23 02:52:46;;;;;;;0.00;0.00;;;;;;;;;;1737373;28;20223;-71
2022/10/23 02:53:42;;;;;;;0.00;0.00;;;;;;;;;;1741173;28;20219;-71
2022/10/23 02:54:47;;;;;;;0.00;0.00;;;;;;;;;;1737222;28;20652;-70
2022/10/23 02:55:43;;;;;;;0.00;0.00;;;;;;;;;;1734749;28;20224;-71
2022/10/23 02:56:38;;;;;;;0.00;0.00;;;;;;;;;;1740954;28;20632;-72
2022/10/23 02:57:31;;;;;;;0.00;0.00;;;;;;;;;;1739955;28;20676;-72
2022/10/23 02:58:27;;;;;;;0.00;0.00;;;;;;;;;;1740765;28;20441;-72
2022/10/23 02:59:23;;;;;;;0.00;0.00;;;;;;;;;;1740372;28;20250;-72
2022/10/23 03:00:16;;;;;;;0.00;0.00;;;;;;;;;;1740878;28;20187;-72
2022/10/23 03:01:09;;;;;;;0.00;0.00;;;;;;;;;;1740358;28;20230;-71
2022/10/23 03:02:03;;;;;;;0.00;0.00;;;;;;;;;;1740560;28;20431;-71
2022/10/23 03:02:55;;;;;;;0.00;0.00;;;;;;;;;;1740441;28;20238;-70
2022/10/23 03:03:51;;;;;;;0.00;0.00;;;;;;;;;;1740422;28;20199;-71
2022/10/23 03:04:42;;;;;;;0.00;0.00;;;;;;;;;;1740613;28;20231;-70
2022/10/23 03:05:36;;;;;;;0.00;0.00;;;;;;;;;;1740559;28;20265;-70
2022/10/23 03:06:27;;;;;;;0.00;0.00;;;;;;;;;;1737177;28;20260;-71
2022/10/23 03:07:20;;;;;;;0.00;0.00;;;;;;;;;;1740238;28;20199;-71
2022/10/23 03:08:12;;;;;;;0.00;0.00;;;;;;;;;;1740827;28;20235;-70
2022/10/23 03:09:05;;;;;;;0.00;0.00;;;;;;;;;;1741665;28;20269;-71
2022/10/23 03:09:56;;;;;;;0.00;0.00;;;;;;;;;;1743302;28;20242;-70
2022/10/23 03:10:50;;;;;;;0.00;0.00;;;;;;;;;;1740322;28;20691;-72
2022/10/23 03:11:41;;;;;;;0.00;0.00;;;;;;;;;;1740946;28;20222;-72
2022/10/23 03:12:33;;;;;;;0.00;0.00;;;;;;;;;;1740030;28;20284;-72
2022/10/23 03:13:25;;;;;;;0.00;0.00;;;;;;;;;;1740881;28;20242;-72
2022/10/23 03:14:16;;;;;;;0.00;0.00;;;;;;;;;;1740423;28;20297;-72
2022/10/23 03:15:11;;;;;;;0.00;0.00;;;;;;;;;;1740929;28;20207;-72
2022/10/23 03:16:02;;;;;;;0.00;0.00;;;;;;;;;;1739865;28;20235;-71
2022/10/23 03:16:54;;;;;;;0.00;0.00;;;;;;;;;;1740732;28;20257;-71
2022/10/23 03:17:45;;;;;;;0.00;0.00;;;;;;;;;;1740330;28;20302;-71
2022/10/23 03:18:37;;;;;;;0.00;0.00;;;;;;;;;;1740898;28;20285;-71
2022/10/23 03:19:28;;;;;;;0.00;0.00;;;;;;;;;;1739981;28;20615;-71
2022/10/23 03:20:20;;;;;;;0.00;0.00;;;;;;;;;;1740721;28;20203;-70
2022/10/23 03:21:11;;;;;;;0.00;0.00;;;;;;;;;;1740792;28;20294;-71
2022/10/23 03:22:03;;;;;;;0.00;0.00;;;;;;;;;;1746994;28;20226;-71
2022/10/23 03:22:54;;;;;;;0.00;0.00;;;;;;;;;;1740545;28;20655;-71
2022/10/23 03:23:46;;;;;;;0.00;0.00;;;;;;;;;;1740654;28;20226;-71
2022/10/23 03:24:37;;;;;;;0.00;0.00;;;;;;;;;;1740794;28;20238;-71
2022/10/23 03:25:29;;;;;;;0.00;0.00;;;;;;;;;;1740632;28;20207;-71
2022/10/23 03:26:21;;;;;;;0.00;0.00;;;;;;;;;;1740545;28;20249;-71
2022/10/23 03:27:13;;;;;;;0.00;0.00;;;;;;;;;;1739998;28;20203;-71
2022/10/23 03:28:04;;;;;;;0.00;0.00;;;;;;;;;;1740765;28;20249;-71
2022/10/23 03:28:56;;;;;;;0.00;0.00;;;;;;;;;;1741361;28;20748;-71
2022/10/23 03:29:47;;;;;;;0.00;0.00;;;;;;;;;;1747616;28;20971;-71
2022/10/23 03:30:41;;;;;;;0.00;0.00;;;;;;;;;;1745291;28;20226;-71
2022/10/23 03:31:32;;;;;;;0.00;0.00;;;;;;;;;;1740222;28;20249;-72
2022/10/23 03:32:24;;;;;;;0.00;0.00;;;;;;;;;;1739732;28;20213;-72
2022/10/23 03:33:15;;;;;;;0.00;0.00;;;;;;;;;;1740395;28;20238;-72
2022/10/23 03:34:10;;;;;;;0.00;0.00;;;;;;;;;;1740271;28;20210;-72
2022/10/23 03:35:04;;;;;;;0.00;0.00;;;;;;;;;;1740615;28;20290;-72
2022/10/23 03:35:56;;;;;;;0.00;0.00;;;;;;;;;;1740310;28;20643;-72
2022/10/23 03:36:48;;;;;;;0.00;0.00;;;;;;;;;;1740775;28;20290;-72
2022/10/23 03:37:39;;;;;;;0.00;0.00;;;;;;;;;;1739869;28;20294;-72
2022/10/23 03:38:32;;;;;;;0.00;0.00;;;;;;;;;;1740729;28;20206;-72
2022/10/23 03:39:23;;;;;;;0.00;0.00;;;;;;;;;;1740090;28;20290;-72
2022/10/23 03:40:15;;;;;;;0.00;0.00;;;;;;;;;;1741030;28;20214;-72
2022/10/23 03:41:06;;;;;;;0.00;0.00;;;;;;;;;;1740300;28;20295;-72
2022/10/23 03:41:58;;;;;;;0.00;0.00;;;;;;;;;;1740294;28;20596;-72
2022/10/23 03:42:49;;;;;;;0.00;0.00;;;;;;;;;;1739781;28;20612;-72
2022/10/23 03:43:41;;;;;;;0.00;0.00;;;;;;;;;;1740463;28;20223;-72
2022/10/23 03:44:33;;;;;;;0.00;0.00;;;;;;;;;;1740373;28;20637;-72
2022/10/23 03:45:25;;;;;;;0.00;0.00;;;;;;;;;;1740791;28;20212;-72
2022/10/23 03:46:17;;;;;;;0.00;0.00;;;;;;;;;;1739176;28;20257;-72
2022/10/23 03:47:10;;;;;;;0.00;0.00;;;;;;;;;;1740358;28;20583;-72
2022/10/23 03:48:01;;;;;;;0.00;0.00;;;;;;;;;;1740444;28;20254;-72
2022/10/23 03:48:54;;;;;;;0.00;0.00;;;;;;;;;;1740270;28;20234;-72
2022/10/23 03:49:45;;;;;;;0.00;0.00;;;;;;;;;;1740517;28;20298;-71
2022/10/23 03:50:37;;;;;;;0.00;0.00;;;;;;;;;;1740594;28;20234;-71
2022/10/23 03:51:28;;;;;;;0.00;0.00;;;;;;;;;;1740528;28;20297;-72
2022/10/23 03:52:20;;;;;;;0.00;0.00;;;;;;;;;;1739711;28;20265;-72
2022/10/23 03:53:11;;;;;;;0.00;0.00;;;;;;;;;;1744581;28;20253;-71
2022/10/23 03:54:03;;;;;;;0.00;0.00;;;;;;;;;;1746444;28;20602;-71
2022/10/23 03:54:54;;;;;;;0.00;0.00;;;;;;;;;;1747470;28;20276;-71
2022/10/23 03:55:46;;;;;;;0.00;0.00;;;;;;;;;;1744250;28;20253;-72
2022/10/23 03:56:37;;;;;;;0.00;0.00;;;;;;;;;;1740511;28;20739;-70
2022/10/23 03:57:29;;;;;;;0.00;0.00;;;;;;;;;;1740051;28;20262;-71
2022/10/23 03:58:20;;;;;;;0.00;0.00;;;;;;;;;;1745654;28;20206;-70
2022/10/23 03:59:12;;;;;;;0.00;0.00;;;;;;;;;;1746742;28;20472;-71
2022/10/23 04:00:05;;;;;;;0.00;0.00;;;;;;;;;;1747387;28;20687;-71
2022/10/23 04:00:57;;;;;;;0.00;0.00;;;;;;;;;;1742343;28;20210;-71
2022/10/23 04:01:49;;;;;;;0.00;0.00;;;;;;;;;;1740351;28;20249;-71
2022/10/23 04:02:41;;;;;;;0.00;0.00;;;;;;;;;;1744797;28;20198;-72
2022/10/23 04:03:32;;;;;;;0.00;0.00;;;;;;;;;;1747293;28;20293;-71
2022/10/23 04:04:24;;;;;;;0.00;0.00;;;;;;;;;;1740542;28;20269;-72
2022/10/23 04:05:16;;;;;;;0.00;0.00;;;;;;;;;;1740911;28;20227;-72
2022/10/23 04:06:07;;;;;;;0.00;0.00;;;;;;;;;;1739868;28;20465;-72
2022/10/23 04:06:59;;;;;;;0.00;0.00;;;;;;;;;;1740338;28;20199;-72
2022/10/23 04:07:50;;;;;;;0.00;0.00;;;;;;;;;;1740050;28;20222;-72
2022/10/23 04:08:43;;;;;;;0.00;0.00;;;;;;;;;;1740409;28;20699;-72
2022/10/23 04:09:34;;;;;;;0.00;0.00;;;;;;;;;;1740023;28;20699;-72
2022/10/23 04:10:26;;;;;;;0.00;0.00;;;;;;;;;;1740318;28;20475;-72
2022/10/23 04:11:17;;;;;;;0.00;0.00;;;;;;;;;;1740372;28;20245;-72
2022/10/23 04:12:09;;;;;;;0.00;0.00;;;;;;;;;;1740953;28;20645;-72
2022/10/23 04:13:00;;;;;;;0.00;0.00;;;;;;;;;;1746805;28;20786;-72
2022/10/23 04:13:52;;;;;;;0.00;0.00;;;;;;;;;;1747122;28;20365;-71
2022/10/23 04:14:44;;;;;;;0.00;0.00;;;;;;;;;;1747002;28;20206;-71
2022/10/23 04:15:36;;;;;;;0.00;0.00;;;;;;;;;;1744965;28;20213;-72
2022/10/23 04:16:27;;;;;;;0.00;0.00;;;;;;;;;;1740329;28;20217;-70
2022/10/23 04:17:20;;;;;;;0.00;0.00;;;;;;;;;;1739901;28;20206;-70
2022/10/23 04:18:11;;;;;;;0.00;0.00;;;;;;;;;;1740478;28;20253;-70
2022/10/23 04:19:03;;;;;;;0.00;0.00;;;;;;;;;;1740958;28;20683;-70
2022/10/23 04:19:54;;;;;;;0.00;0.00;;;;;;;;;;1747258;28;20601;-70
2022/10/23 04:20:47;;;;;;;0.00;0.00;;;;;;;;;;1746970;28;20530;-70
2022/10/23 04:21:38;;;;;;;0.00;0.00;;;;;;;;;;1747189;28;20301;-71
2022/10/23 04:22:30;;;;;;;0.00;0.00;;;;;;;;;;1746662;28;20222;-71
2022/10/23 04:23:22;;;;;;;0.00;0.00;;;;;;;;;;1747011;28;20706;-71
2022/10/23 04:24:14;;;;;;;0.00;0.00;;;;;;;;;;1746577;28;20233;-71
2022/10/23 04:25:05;;;;;;;0.00;0.00;;;;;;;;;;1747483;28;20257;-71
2022/10/23 04:25:57;;;;;;;0.00;0.00;;;;;;;;;;1742053;28;20218;-71
2022/10/23 04:26:48;;;;;;;0.00;0.00;;;;;;;;;;1740426;28;20199;-70
2022/10/23 04:27:40;;;;;;;0.00;0.00;;;;;;;;;;1744545;28;20248;-71
2022/10/23 04:28:31;;;;;;;0.00;0.00;;;;;;;;;;1747278;28;20414;-71
2022/10/23 04:29:23;;;;;;;0.00;0.00;;;;;;;;;;1746095;28;20198;-71
2022/10/23 04:30:15;;;;;;;0.00;0.00;;;;;;;;;;1747613;28;20321;-70
2022/10/23 04:31:07;;;;;;;0.00;0.00;;;;;;;;;;1740406;28;20210;-71
2022/10/23 04:31:58;;;;;;;0.00;0.00;;;;;;;;;;1739598;28;20230;-73
2022/10/23 04:32:52;;;;;;;0.00;0.00;;;;;;;;;;1739770;28;20228;-71
2022/10/23 04:33:43;;;;;;;0.00;0.00;;;;;;;;;;1740070;28;20592;-72
2022/10/23 04:34:35;;;;;;;0.00;0.00;;;;;;;;;;1740356;28;20202;-72
2022/10/23 04:35:26;;;;;;;0.00;0.00;;;;;;;;;;1740322;28;20249;-72
2022/10/23 04:36:18;;;;;;;0.00;0.00;;;;;;;;;;1740361;28;20517;-71
2022/10/23 04:37:09;;;;;;;0.00;0.00;;;;;;;;;;1739561;28;20596;-71
2022/10/23 04:38:01;;;;;;;0.00;0.00;;;;;;;;;;1740315;28;20195;-71
2022/10/23 04:38:52;;;;;;;0.00;0.00;;;;;;;;;;1740055;28;20286;-71
2022/10/23 04:39:44;;;;;;;0.00;0.00;;;;;;;;;;1740136;28;20561;-71
2022/10/23 04:40:36;;;;;;;0.00;0.00;;;;;;;;;;1740450;28;20661;-71
2022/10/23 04:41:28;;;;;;;0.00;0.00;;;;;;;;;;1740124;28;20211;-72
2022/10/23 04:42:19;;;;;;;0.00;0.00;;;;;;;;;;1739669;28;20636;-70
2022/10/23 04:43:11;;;;;;;0.00;0.00;;;;;;;;;;1740450;28;20199;-72
2022/10/23 04:44:02;;;;;;;0.00;0.00;;;;;;;;;;1739828;28;20253;-71
2022/10/23 04:44:54;;;;;;;0.00;0.00;;;;;;;;;;1740320;28;20195;-70
2022/10/23 04:45:45;;;;;;;0.00;0.00;;;;;;;;;;1740212;28;20249;-71
2022/10/23 04:46:38;;;;;;;0.00;0.00;;;;;;;;;;1740410;28;20249;-70
2022/10/23 04:47:29;;;;;;;0.00;0.00;;;;;;;;;;1739577;28;20207;-71
2022/10/23 04:48:22;;;;;;;0.00;0.00;;;;;;;;;;1745334;28;20233;-71
2022/10/23 04:49:13;;;;;;;0.00;0.00;;;;;;;;;;1742575;28;20249;-70
2022/10/23 04:50:06;;;;;;;0.00;0.00;;;;;;;;;;1740297;28;20911;-70
2022/10/23 04:50:57;;;;;;;0.00;0.00;;;;;;;;;;1743963;28;20671;-71
2022/10/23 04:51:49;;;;;;;0.00;0.00;;;;;;;;;;1746680;28;20218;-70
2022/10/23 04:52:40;;;;;;;0.00;0.00;;;;;;;;;;1741355;28;20245;-71
2022/10/23 04:53:33;;;;;;;0.00;0.00;;;;;;;;;;1739894;28;20229;-71
2022/10/23 04:54:24;;;;;;;0.00;0.00;;;;;;;;;;1739770;28;20211;-70
2022/10/23 04:55:16;;;;;;;0.00;0.00;;;;;;;;;;1747543;28;20190;-70
2022/10/23 04:56:07;;;;;;;0.00;0.00;;;;;;;;;;1745880;28;20269;-70
2022/10/23 04:56:59;;;;;;;0.00;0.00;;;;;;;;;;1747262;28;20276;-70
2022/10/23 04:57:51;;;;;;;0.00;0.00;;;;;;;;;;1732613;28;20317;-71
2022/10/23 04:58:43;;;;;;;0.00;0.00;;;;;;;;;;1732477;28;20238;-70
2022/10/23 04:59:34;;;;;;;0.00;0.00;;;;;;;;;;1730245;28;20222;-71
2022/10/23 05:00:26;;;;;;;0.00;0.00;;;;;;;;;;1733908;28;20205;-70
2022/10/23 05:01:17;;;;;;;0.00;0.00;;;;;;;;;;1740182;28;20238;-70
2022/10/23 05:02:08;;;;;;;0.00;0.00;;;;;;;;;;1739596;28;20199;-70
2022/10/23 05:03:00;;;;;;;0.00;0.00;;;;;;;;;;1740311;28;20199;-70
2022/10/23 05:03:55;;;;;;;0.00;0.00;;;;;;;;;;1738313;28;20326;-70
2022/10/23 05:04:47;;;;;;;0.00;0.00;;;;;;;;;;1732599;28;20597;-71
2022/10/23 05:05:38;;;;;;;0.00;0.00;;;;;;;;;;1734975;28;20657;-71
2022/10/23 05:06:30;;;;;;;0.00;0.00;;;;;;;;;;1736053;28;20618;-71
2022/10/23 05:07:21;;;;;;;0.00;0.00;;;;;;;;;;1735452;28;20286;-71
2022/10/23 05:08:13;;;;;;;0.00;0.00;;;;;;;;;;1733716;28;20245;-72
2022/10/23 05:09:04;;;;;;;0.00;0.00;;;;;;;;;;1735705;28;20240;-72
2022/10/23 05:09:56;;;;;;;0.00;0.00;;;;;;;;;;1735996;28;20203;-72
2022/10/23 05:10:48;;;;;;;0.00;0.00;;;;;;;;;;1733109;28;20597;-72
2022/10/23 05:11:40;;;;;;;0.00;0.00;;;;;;;;;;1733294;28;20652;-70
2022/10/23 05:12:31;;;;;;;0.00;0.00;;;;;;;;;;1732528;28;20250;-71
2022/10/23 05:13:23;;;;;;;0.00;0.00;;;;;;;;;;1733281;28;20227;-71
2022/10/23 05:14:14;;;;;;;0.00;0.00;;;;;;;;;;1732921;28;20246;-70
2022/10/23 05:15:07;;;;;;;0.00;0.00;;;;;;;;;;1738920;28;20205;-70
2022/10/23 05:15:58;;;;;;;0.00;0.00;;;;;;;;;;1739215;28;20664;-70
2022/10/23 05:16:52;;;;;;;0.00;0.00;;;;;;;;;;1739962;28;20631;-71
2022/10/23 05:17:45;;;;;;;0.00;0.00;;;;;;;;;;1739875;28;20249;-70